<?xml version="1.0" encoding="UTF-8" standalone="no" ?>
<gpx xmlns="http://www.topografix.com/GPX/1/1" xmlns:xsi="http://www.w3.org/2001/XMLSchema-instance" xsi:schemaLocation="http://www.topografix.com/GPX/1/1 http://www.topografix.com/GPX/1/1/gpx.xsd" version="1.1" creator="VisuGPX - https://www.visugpx.com">
  <metadata>
    <name>Etape 3: Saint-Florent-sur-Cher&gt; Selles-sur-Cher</name>
    <desc><![CDATA[tape 3: Saint-Florent-sur-Cher> Selles-sur-Cher
Vendredi 15 juin]]></desc>
  </metadata>
  <trk>
    <name><![CDATA[20180610203831-LJrq6]]></name>
    <trkseg>
      <trkpt lat="47.29357" lon="1.77599">
        <ele>97</ele>
        <time>2018-04-18T10:40:39Z</time>
      </trkpt>
      <trkpt lat="47.29389" lon="1.77588">
        <ele>99</ele>
        <time>2018-04-18T10:41:13Z</time>
      </trkpt>
      <trkpt lat="47.29392" lon="1.77588">
        <ele>99</ele>
        <time>2018-04-18T10:41:18Z</time>
      </trkpt>
      <trkpt lat="47.29394" lon="1.77587">
        <ele>99</ele>
        <time>2018-04-18T10:41:26Z</time>
      </trkpt>
      <trkpt lat="47.29395" lon="1.77587">
        <ele>99</ele>
        <time>2018-04-18T10:41:30Z</time>
      </trkpt>
      <trkpt lat="47.29395" lon="1.77587">
        <ele>99</ele>
        <time>2018-04-18T10:41:43Z</time>
      </trkpt>
      <trkpt lat="47.29395" lon="1.77587">
        <ele>99</ele>
        <time>2018-04-18T10:41:58Z</time>
      </trkpt>
      <trkpt lat="47.29395" lon="1.77588">
        <ele>99</ele>
        <time>2018-04-18T10:42:07Z</time>
      </trkpt>
      <trkpt lat="47.29395" lon="1.77588">
        <ele>99</ele>
        <time>2018-04-18T10:42:09Z</time>
      </trkpt>
      <trkpt lat="47.29395" lon="1.77587">
        <ele>99</ele>
        <time>2018-04-18T10:42:10Z</time>
      </trkpt>
      <trkpt lat="47.29394" lon="1.77587">
        <ele>99</ele>
        <time>2018-04-18T10:42:11Z</time>
      </trkpt>
      <trkpt lat="47.29394" lon="1.77587">
        <ele>99</ele>
        <time>2018-04-18T10:42:12Z</time>
      </trkpt>
      <trkpt lat="47.29394" lon="1.77587">
        <ele>99</ele>
        <time>2018-04-18T10:42:13Z</time>
      </trkpt>
      <trkpt lat="47.29389" lon="1.77588">
        <ele>99</ele>
        <time>2018-04-18T10:42:16Z</time>
      </trkpt>
      <trkpt lat="47.29376" lon="1.77589">
        <ele>98</ele>
        <time>2018-04-18T10:42:20Z</time>
      </trkpt>
      <trkpt lat="47.29372" lon="1.7759">
        <ele>98</ele>
        <time>2018-04-18T10:42:21Z</time>
      </trkpt>
      <trkpt lat="47.29367" lon="1.77591">
        <ele>97</ele>
        <time>2018-04-18T10:42:22Z</time>
      </trkpt>
      <trkpt lat="47.29362" lon="1.77591">
        <ele>97</ele>
        <time>2018-04-18T10:42:23Z</time>
      </trkpt>
      <trkpt lat="47.29354" lon="1.77584">
        <ele>96</ele>
        <time>2018-04-18T10:42:25Z</time>
      </trkpt>
      <trkpt lat="47.29353" lon="1.77571">
        <ele>96</ele>
        <time>2018-04-18T10:42:27Z</time>
      </trkpt>
      <trkpt lat="47.29352" lon="1.77559">
        <ele>96</ele>
        <time>2018-04-18T10:42:29Z</time>
      </trkpt>
      <trkpt lat="47.29349" lon="1.77475">
        <ele>96</ele>
        <time>2018-04-18T10:42:45Z</time>
      </trkpt>
      <trkpt lat="47.29348" lon="1.77392">
        <ele>96</ele>
        <time>2018-04-18T10:43:03Z</time>
      </trkpt>
      <trkpt lat="47.29347" lon="1.77369">
        <ele>96</ele>
        <time>2018-04-18T10:43:08Z</time>
      </trkpt>
      <trkpt lat="47.29346" lon="1.77299">
        <ele>97</ele>
        <time>2018-04-18T10:43:23Z</time>
      </trkpt>
      <trkpt lat="47.29346" lon="1.77289">
        <ele>97</ele>
        <time>2018-04-18T10:43:25Z</time>
      </trkpt>
      <trkpt lat="47.2935" lon="1.77215">
        <ele>96</ele>
        <time>2018-04-18T10:43:47Z</time>
      </trkpt>
      <trkpt lat="47.29351" lon="1.7721">
        <ele>96</ele>
        <time>2018-04-18T10:43:52Z</time>
      </trkpt>
      <trkpt lat="47.29352" lon="1.7721">
        <ele>96</ele>
        <time>2018-04-18T10:43:58Z</time>
      </trkpt>
      <trkpt lat="47.29352" lon="1.77211">
        <ele>96</ele>
        <time>2018-04-18T10:44:40Z</time>
      </trkpt>
      <trkpt lat="47.29352" lon="1.77211">
        <ele>96</ele>
        <time>2018-04-18T10:44:50Z</time>
      </trkpt>
      <trkpt lat="47.29353" lon="1.77212">
        <ele>96</ele>
        <time>2018-04-18T10:45:03Z</time>
      </trkpt>
      <trkpt lat="47.29353" lon="1.77211">
        <ele>96</ele>
        <time>2018-04-18T10:45:21Z</time>
      </trkpt>
      <trkpt lat="47.29353" lon="1.77209">
        <ele>96</ele>
        <time>2018-04-18T10:45:24Z</time>
      </trkpt>
      <trkpt lat="47.29355" lon="1.77201">
        <ele>96</ele>
        <time>2018-04-18T10:45:28Z</time>
      </trkpt>
    </trkseg>
  </trk>
</gpx>